Strona główna
METAR-TAF:

METAR-TAF

Lotnisko :

Port lotniczy Kair

Kair, Egipt

Szerokość geograficzna: 30-08N, Długość geograficzna: 031-24E, wysokość: 64 m

Aktualna obserwacja pogody

Raport powstał 36 minut temu, godzina 03:00 UTC
Wiatr 4 kt od północny wschód
Temperatura 22°C
Wilgotność 73%
Ciśnienie 343 hPa
Widzialność: 3000 m
zmętnienie

METAR: HECA 180300Z 05004KT 3000 HZ NSC 22/17 A1013

czas: 05:36 (03:36 UTC)

Prognoza

Raport powstał 4 godziny i 26 minut temu, godzina 23:10 UTC
Prognoza ważna od 18 godzina 00 UTC do 19 godzina 06 UTC
Wiatr 6 kt od północ
Widzialność 10 km lub więcej
Rozproszone chmury na wysokości 2500 ft
Przejściowo
od 18 godzina 03 UTC do 18 godzina 06 UTC
Wiatr 3 kt z kierunków zmiennych
Widzialność: 4000 m
zmętnienie

TAF: HECA 172310Z 1800/1906 35006KT 9999 SCT025 TEMPO 1803/1806 VRB03KT 4000 HZ NSC

Obserwacja i prognoza pogody dla ponad 4000 lotnisk (raport METAR i TAF).

Dostępne stacje oznaczono żółtymi i czerwonymi punktami na mapie.

Najedź kursorem aby zobaczyć nazwę stacji.

Kliknij aby zobaczyć obserwacje i prognozy pogody.

Aby zmienić mapę: kliknij na zielony przycisk z czarnym krzyżykiem, aby powiększyć; na zielony przycisk z myślnikiem, aby pomniejszyć; na zielone strzałki, aby przejść do map sąsiednich.


METAR-TAF: